Masonic Park, Colorado
Current Conditions -  °F | °C
As of 11:50 PM on Friday 24 Oct 2014 (Local Time) from KRCV Reporting Station
Clear Clear  
Wind Chill:   Ceiling: Unl
Heat Index:   Visibility: 10mi
Dew Point: -2°   Wind: 16mph
Humidity: 49%   Direction: 270°W
Pressure: 30.43"   Gusts: NA
Location:  37.6617°N, 106.617°W
Report Text: KRCV 250550Z AUTO 27014KT 10SM CLR 08/M02 A3043 RMK AO2 T00811020 10172 20067
Loading
Personal Weather Stations






























Interactive Weather Map
Tropical Storm Tracking
New forecast layout! Learn more

10-Day Weather Forecast

Advertisements
Track Severe Weather on mobile